createdAt,value
2019-05-06T00:03:43.444Z,987.1
2019-05-06T00:08:43.935Z,987.1
2019-05-06T00:13:44.118Z,987
2019-05-06T00:18:44.416Z,987
2019-05-06T00:23:42.231Z,986.9
2019-05-06T00:28:44.492Z,986.9
2019-05-06T00:33:44.284Z,987
2019-05-06T00:38:44.598Z,986.9
2019-05-06T00:43:43.687Z,986.9
2019-05-06T04:17:53.320Z,986.7
2019-05-06T04:22:53.085Z,986.7
2019-05-06T04:27:50.382Z,986.7
2019-05-06T04:32:52.995Z,986.8
2019-05-06T04:37:53.515Z,986.7
2019-05-06T04:42:52.679Z,986.7
2019-05-06T04:47:52.920Z,986.7
2019-05-06T04:52:51.119Z,986.7
2019-05-06T04:57:53.395Z,986.6
2019-05-06T05:02:50.340Z,986.7
2019-05-06T05:07:52.815Z,986.6
2019-05-06T05:12:52.547Z,986.7
2019-05-06T05:17:52.479Z,986.7
2019-05-06T05:22:50.343Z,986.7
2019-05-06T05:27:50.353Z,986.7
2019-05-06T05:32:52.048Z,986.7
2019-05-06T05:37:50.334Z,986.8
2019-05-06T05:42:52.051Z,986.8
2019-05-06T05:47:52.172Z,986.7
2019-05-06T05:52:51.929Z,986.7
2019-05-06T05:57:51.862Z,986.8
2019-05-06T06:02:52.924Z,986.7
2019-05-06T06:07:50.357Z,986.7
2019-05-06T06:12:52.638Z,986.7
2019-05-06T06:17:54.416Z,986.8
2019-05-06T06:22:54.455Z,986.8
2019-05-06T06:27:54.461Z,986.8
2019-05-06T06:32:54.363Z,986.8
2019-05-06T06:37:54.432Z,986.7
2019-05-06T06:42:54.373Z,986.7
2019-05-06T06:47:54.406Z,986.7
2019-05-06T06:52:54.378Z,986.7
2019-05-06T06:57:54.365Z,986.8
2019-05-06T07:02:54.368Z,986.7
2019-05-06T07:04:43.213Z,986.7
2019-05-06T07:09:43.409Z,986.7
2019-05-06T07:14:43.336Z,986.7
2019-05-06T07:19:43.366Z,986.7
2019-05-06T07:24:43.351Z,986.6
2019-05-06T07:29:48.054Z,986.6
2019-05-06T07:34:43.368Z,986.6
2019-05-06T07:39:47.706Z,986.7
2019-05-06T07:44:43.324Z,986.7
2019-05-06T07:49:46.482Z,986.7
2019-05-06T07:54:46.543Z,986.7
2019-05-06T07:59:46.480Z,986.7
2019-05-06T08:04:46.487Z,986.7
2019-05-06T08:09:46.554Z,986.7
2019-05-06T08:14:46.516Z,986.7
2019-05-06T08:19:46.487Z,986.8
2019-05-06T08:24:46.490Z,986.8
2019-05-06T08:29:46.447Z,986.7
2019-05-06T08:34:46.454Z,986.7
2019-05-06T08:39:46.456Z,986.8
2019-05-06T08:44:52.791Z,986.7
2019-05-06T08:49:49.292Z,986.7
2019-05-06T08:54:46.709Z,986.8
2019-05-06T08:59:46.732Z,986.8
2019-05-06T09:04:46.670Z,986.7
2019-05-06T09:09:55.986Z,986.7
2019-05-06T09:14:46.655Z,986.7
2019-05-06T09:19:46.674Z,986.6
2019-05-06T09:24:46.652Z,986.6
2019-05-06T09:29:46.682Z,986.5
2019-05-06T09:34:46.648Z,986.5
2019-05-06T09:39:53.180Z,986.5
2019-05-06T09:44:50.130Z,986.5
2019-05-06T09:49:48.055Z,986.5
2019-05-06T09:54:46.658Z,986.5
2019-05-06T09:59:46.622Z,986.5
2019-05-06T10:04:46.677Z,986.5
2019-05-06T10:09:46.607Z,986.5
2019-05-06T10:14:52.521Z,986.5
2019-05-06T10:19:50.647Z,986.5
2019-05-06T10:24:52.245Z,986.5
2019-05-06T10:29:52.174Z,986.4
2019-05-06T10:34:52.566Z,986.4
2019-05-06T10:39:52.159Z,986.4
2019-05-06T10:44:53.127Z,986.3
2019-05-06T10:49:52.880Z,986.4
2019-05-06T10:54:51.776Z,986.4
2019-05-06T10:59:50.602Z,986.4
2019-05-06T11:04:52.462Z,986.3
2019-05-06T11:09:53.089Z,986.3
2019-05-06T11:14:53.136Z,986.3
2019-05-06T11:19:50.577Z,986.3
2019-05-06T11:24:54.510Z,986.3
2019-05-06T11:29:54.507Z,986.3
2019-05-06T11:34:54.433Z,986.4
2019-05-06T11:39:54.437Z,986.3
2019-05-06T11:44:54.466Z,986.4
2019-05-06T11:49:56.200Z,986.4
2019-05-06T11:54:55.304Z,986.4
2019-05-06T11:59:55.230Z,986.4
2019-05-06T12:04:55.300Z,986.2
2019-05-06T12:09:55.230Z,986.2
2019-05-06T12:14:55.218Z,986.2
2019-05-06T12:19:55.218Z,986.2
2019-05-06T12:24:55.213Z,986.2
2019-05-06T12:29:55.175Z,986.1
2019-05-06T12:34:55.231Z,986.1
2019-05-06T12:39:55.180Z,986.1
2019-05-06T12:44:55.153Z,986.1
2019-05-06T12:49:57.683Z,986
2019-05-06T12:55:13.121Z,986.1
2019-05-06T12:59:55.379Z,986
2019-05-06T13:05:00.320Z,985.9
2019-05-06T13:09:55.408Z,985.9
2019-05-06T13:14:56.863Z,985.8
2019-05-06T13:19:55.394Z,985.9
2019-05-06T13:24:55.375Z,985.8
2019-05-06T13:29:55.357Z,985.8
2019-05-06T13:34:58.647Z,985.8
2019-05-06T13:39:55.458Z,985.8
2019-05-06T13:44:55.337Z,985.8
2019-05-06T13:49:55.345Z,985.8
2019-05-06T13:54:55.358Z,985.7
2019-05-06T13:59:55.330Z,985.7
2019-05-06T14:04:55.360Z,985.7
2019-05-06T14:09:55.369Z,985.7
2019-05-06T14:14:55.360Z,985.7
2019-05-06T14:19:55.313Z,985.7
2019-05-06T14:24:55.334Z,985.7
2019-05-06T14:29:55.320Z,985.7
2019-05-06T14:34:55.329Z,985.6
2019-05-06T14:39:59.323Z,985.6
2019-05-06T14:44:55.312Z,985.5
2019-05-06T14:49:55.342Z,985.5
2019-05-06T14:54:55.328Z,985.4
2019-05-06T14:59:55.934Z,985.4
2019-05-06T15:04:55.294Z,985.3
2019-05-06T15:14:55.516Z,985.2
2019-05-06T15:19:55.313Z,985.2
2019-05-06T15:24:55.281Z,985.1
2019-05-06T15:29:55.324Z,985.1
2019-05-06T15:34:56.550Z,985.1
2019-05-06T15:39:56.513Z,985.1
2019-05-06T15:44:56.550Z,985.1
2019-05-06T15:49:56.510Z,985.1
2019-05-06T15:54:56.531Z,985.1
2019-05-06T15:59:56.520Z,985
2019-05-06T16:04:56.518Z,985.1
2019-05-06T16:10:03.808Z,985
2019-05-06T16:15:02.632Z,985
2019-05-06T16:20:02.827Z,985
2019-05-06T16:25:02.708Z,985
2019-05-06T16:35:03.121Z,984.9
2019-05-06T16:43:17.652Z,984.8
2019-05-06T16:48:12.940Z,984.8
2019-05-06T16:57:23.213Z,984.8
2019-05-06T17:02:26.922Z,984.6
2019-05-06T17:07:22.755Z,984.7
2019-05-06T17:12:24.868Z,984.8
2019-05-06T17:17:22.942Z,984.8
2019-05-06T17:21:48.674Z,984.8
2019-05-06T17:26:48.531Z,984.8
2019-05-06T17:42:31.291Z,984.8
2019-05-06T17:47:32.053Z,984.7
2019-05-06T17:52:33.354Z,984.8
2019-05-06T17:57:32.777Z,984.8
2019-05-06T18:02:32.609Z,984.9
2019-05-06T18:08:12.774Z,984.9
2019-05-06T18:13:12.659Z,984.8
2019-05-06T18:18:12.961Z,984.8
2019-05-06T18:23:12.874Z,984.8
2019-05-06T18:28:12.357Z,984.8
2019-05-06T18:33:13.256Z,984.8
2019-05-06T18:38:14.645Z,984.8
2019-05-06T18:55:17.565Z,984.8
2019-05-06T19:00:17.524Z,984.8
2019-05-06T19:05:17.519Z,984.8
2019-05-06T19:10:17.684Z,984.8
2019-05-06T19:15:17.487Z,984.7
2019-05-06T19:20:17.487Z,984.8
2019-05-06T19:25:17.499Z,984.9
2019-05-06T19:30:17.477Z,985
2019-05-06T19:35:17.459Z,985
2019-05-06T20:49:26.986Z,985
2019-05-06T20:54:26.944Z,984.9
2019-05-06T20:59:36.759Z,984.9
2019-05-06T21:04:36.749Z,984.9
2019-05-06T21:09:36.736Z,984.9
2019-05-06T21:14:36.710Z,985
2019-05-06T21:19:36.710Z,984.9
2019-05-06T21:24:36.718Z,984.9
2019-05-06T21:29:36.699Z,984.9
2019-05-06T21:34:36.679Z,984.9
2019-05-06T21:39:36.685Z,984.9
2019-05-06T21:44:36.697Z,984.9
2019-05-06T21:49:36.671Z,984.9
2019-05-06T21:54:36.675Z,984.9
2019-05-06T21:59:36.652Z,984.8
2019-05-06T22:04:36.661Z,984.8
2019-05-06T22:18:34.218Z,984.6
2019-05-06T22:23:32.891Z,984.6
2019-05-06T22:28:32.705Z,984.6
2019-05-06T22:33:32.737Z,984.6
2019-05-06T22:38:32.757Z,984.6
2019-05-06T22:43:32.733Z,984.6
2019-05-06T22:48:58.679Z,984.6
2019-05-06T22:53:58.668Z,984.5
2019-05-06T23:16:29.251Z,984.4
2019-05-06T23:21:29.235Z,984.3
2019-05-06T23:26:29.193Z,984.2
2019-05-06T23:31:29.201Z,984.2
2019-05-06T23:36:29.208Z,984.2
2019-05-06T23:41:29.182Z,984.3
2019-05-06T23:46:29.188Z,984.2
2019-05-06T23:51:29.168Z,984.2
2019-05-06T23:56:29.156Z,984.2
